Terminal Aerodrome Forecast
Issued by NWS Huntsville, AL

Home | Current Version | Previous Version | Text Only | Print | Product List | Glossary On
Versions: 1 2 3 4 5 6 7 8 9 10 11 12 13 14 15 16
000
FTUS44 KHUN 300526
TAFMSL
TAF
KMSL 300526Z 3006/0106 14005KT P6SM BKN250
     FM301400 19010KT P6SM SCT040 BKN090
     FM301700 21012G20KT P6SM SCT035 BKN070
     FM301900 21015G25KT P6SM VCTS BKN035CB PROB30 3019/0101
      VRB20G30KT 3SM TSRA OVC020CB
     FM010100 20005KT P6SM BKN120
      AMD NOT SKED=

USA.gov is the U.S. government's official web portal to all federal, state and local government web resources and services.